sensor_id;sensor_type;location;lat;lon;timestamp;P1;durP1;ratioP1;P2;durP2;ratioP2
30472;SDS011;17263;48.160;11.452;2023-03-01T00:01:30;19.90;;;15.83;;
30472;SDS011;17263;48.160;11.452;2023-03-01T00:03:56;20.77;;;16.13;;
30472;SDS011;17263;48.160;11.452;2023-03-01T00:06:24;20.20;;;16.37;;
30472;SDS011;17263;48.160;11.452;2023-03-01T00:08:51;23.90;;;16.70;;
30472;SDS011;17263;48.160;11.452;2023-03-01T00:13:45;22.07;;;15.83;;
30472;SDS011;17263;48.160;11.452;2023-03-01T00:16:13;21.03;;;15.80;;
30472;SDS011;17263;48.160;11.452;2023-03-01T00:18:45;21.53;;;15.97;;
30472;SDS011;17263;48.160;11.452;2023-03-01T00:21:12;19.10;;;14.87;;
30472;SDS011;17263;48.160;11.452;2023-03-01T00:23:38;19.77;;;15.43;;
30472;SDS011;17263;48.160;11.452;2023-03-01T00:26:08;21.80;;;16.50;;
30472;SDS011;17263;48.160;11.452;2023-03-01T00:28:36;21.23;;;15.97;;
30472;SDS011;17263;48.160;11.452;2023-03-01T00:31:06;21.83;;;16.10;;
30472;SDS011;17263;48.160;11.452;2023-03-01T00:33:33;21.33;;;16.13;;
30472;SDS011;17263;48.160;11.452;2023-03-01T00:36:00;20.33;;;15.67;;
30472;SDS011;17263;48.160;11.452;2023-03-01T00:38:27;18.53;;;16.07;;
30472;SDS011;17263;48.160;11.452;2023-03-01T00:40:53;21.80;;;16.33;;
30472;SDS011;17263;48.160;11.452;2023-03-01T00:43:20;21.90;;;15.83;;
30472;SDS011;17263;48.160;11.452;2023-03-01T00:45:46;19.93;;;16.37;;
30472;SDS011;17263;48.160;11.452;2023-03-01T00:48:12;21.17;;;16.60;;
30472;SDS011;17263;48.160;11.452;2023-03-01T00:50:38;20.63;;;16.17;;
30472;SDS011;17263;48.160;11.452;2023-03-01T00:53:04;20.87;;;15.13;;
30472;SDS011;17263;48.160;11.452;2023-03-01T00:55:30;20.33;;;15.77;;
30472;SDS011;17263;48.160;11.452;2023-03-01T00:57:56;20.17;;;15.13;;
30472;SDS011;17263;48.160;11.452;2023-03-01T01:00:22;20.67;;;16.13;;
30472;SDS011;17263;48.160;11.452;2023-03-01T01:02:48;19.97;;;16.30;;
30472;SDS011;17263;48.160;11.452;2023-03-01T01:05:14;21.83;;;16.20;;
30472;SDS011;17263;48.160;11.452;2023-03-01T01:07:46;19.80;;;15.67;;
30472;SDS011;17263;48.160;11.452;2023-03-01T01:10:13;19.93;;;15.40;;
30472;SDS011;17263;48.160;11.452;2023-03-01T01:12:43;20.23;;;16.33;;
30472;SDS011;17263;48.160;11.452;2023-03-01T01:15:10;20.17;;;15.60;;
30472;SDS011;17263;48.160;11.452;2023-03-01T01:17:39;21.73;;;16.70;;
30472;SDS011;17263;48.160;11.452;2023-03-01T01:20:06;23.20;;;15.60;;
30472;SDS011;17263;48.160;11.452;2023-03-01T01:22:32;22.70;;;16.97;;
30472;SDS011;17263;48.160;11.452;2023-03-01T01:24:58;20.23;;;15.37;;
30472;SDS011;17263;48.160;11.452;2023-03-01T01:27:24;21.60;;;15.83;;
30472;SDS011;17263;48.160;11.452;2023-03-01T01:29:52;18.00;;;15.30;;
30472;SDS011;17263;48.160;11.452;2023-03-01T01:32:18;21.20;;;16.33;;
30472;SDS011;17263;48.160;11.452;2023-03-01T01:34:44;24.30;;;16.90;;
30472;SDS011;17263;48.160;11.452;2023-03-01T01:37:11;22.60;;;16.27;;
30472;SDS011;17263;48.160;11.452;2023-03-01T01:39:37;21.73;;;16.97;;
30472;SDS011;17263;48.160;11.452;2023-03-01T01:42:04;18.87;;;15.03;;
30472;SDS011;17263;48.160;11.452;2023-03-01T01:44:30;21.33;;;16.63;;
30472;SDS011;17263;48.160;11.452;2023-03-01T01:46:57;21.90;;;16.63;;
30472;SDS011;17263;48.160;11.452;2023-03-01T01:52:16;20.57;;;15.63;;
30472;SDS011;17263;48.160;11.452;2023-03-01T01:54:57;19.67;;;15.73;;
30472;SDS011;17263;48.160;11.452;2023-03-01T01:57:36;19.53;;;15.77;;
30472;SDS011;17263;48.160;11.452;2023-03-01T02:00:13;20.47;;;15.97;;
30472;SDS011;17263;48.160;11.452;2023-03-01T02:02:45;19.73;;;15.13;;
30472;SDS011;17263;48.160;11.452;2023-03-01T02:05:20;23.87;;;15.77;;
30472;SDS011;17263;48.160;11.452;2023-03-01T02:07:54;21.83;;;16.63;;
30472;SDS011;17263;48.160;11.452;2023-03-01T02:10:22;19.30;;;16.40;;
30472;SDS011;17263;48.160;11.452;2023-03-01T02:12:49;21.43;;;16.70;;
30472;SDS011;17263;48.160;11.452;2023-03-01T02:15:16;18.10;;;15.33;;
30472;SDS011;17263;48.160;11.452;2023-03-01T02:17:42;20.27;;;15.73;;
30472;SDS011;17263;48.160;11.452;2023-03-01T02:20:31;19.10;;;15.23;;
30472;SDS011;17263;48.160;11.452;2023-03-01T02:22:59;18.30;;;15.37;;
30472;SDS011;17263;48.160;11.452;2023-03-01T02:30:42;22.93;;;15.57;;
30472;SDS011;17263;48.160;11.452;2023-03-01T02:33:28;20.83;;;16.07;;
30472;SDS011;17263;48.160;11.452;2023-03-01T02:36:08;21.87;;;16.43;;
30472;SDS011;17263;48.160;11.452;2023-03-01T02:38:42;21.40;;;16.20;;
30472;SDS011;17263;48.160;11.452;2023-03-01T02:41:09;20.83;;;15.50;;
30472;SDS011;17263;48.160;11.452;2023-03-01T02:43:40;19.67;;;16.17;;
30472;SDS011;17263;48.160;11.452;2023-03-01T02:46:13;20.27;;;15.83;;
30472;SDS011;17263;48.160;11.452;2023-03-01T02:48:45;18.90;;;15.70;;
30472;SDS011;17263;48.160;11.452;2023-03-01T02:51:26;21.90;;;16.57;;
30472;SDS011;17263;48.160;11.452;2023-03-01T02:57:03;19.73;;;15.90;;
30472;SDS011;17263;48.160;11.452;2023-03-01T02:59:31;19.40;;;15.43;;
30472;SDS011;17263;48.160;11.452;2023-03-01T03:02:05;20.83;;;16.60;;
30472;SDS011;17263;48.160;11.452;2023-03-01T03:04:45;19.53;;;16.33;;
30472;SDS011;17263;48.160;11.452;2023-03-01T03:07:12;19.20;;;16.50;;
30472;SDS011;17263;48.160;11.452;2023-03-01T03:09:38;22.00;;;15.77;;
30472;SDS011;17263;48.160;11.452;2023-03-01T03:12:04;19.77;;;15.10;;
30472;SDS011;17263;48.160;11.452;2023-03-01T03:14:30;21.57;;;16.40;;
30472;SDS011;17263;48.160;11.452;2023-03-01T03:17:00;18.20;;;15.70;;
30472;SDS011;17263;48.160;11.452;2023-03-01T03:19:26;19.40;;;15.60;;
30472;SDS011;17263;48.160;11.452;2023-03-01T03:21:52;21.03;;;16.53;;
30472;SDS011;17263;48.160;11.452;2023-03-01T03:24:18;20.50;;;15.90;;
30472;SDS011;17263;48.160;11.452;2023-03-01T03:26:44;19.17;;;16.23;;
30472;SDS011;17263;48.160;11.452;2023-03-01T03:29:10;20.47;;;16.57;;
30472;SDS011;17263;48.160;11.452;2023-03-01T03:31:36;21.97;;;16.97;;
30472;SDS011;17263;48.160;11.452;2023-03-01T03:34:02;19.13;;;15.77;;
30472;SDS011;17263;48.160;11.452;2023-03-01T03:36:28;20.70;;;15.40;;
30472;SDS011;17263;48.160;11.452;2023-03-01T03:38:54;23.03;;;16.47;;
30472;SDS011;17263;48.160;11.452;2023-03-01T03:41:20;25.50;;;17.03;;
30472;SDS011;17263;48.160;11.452;2023-03-01T03:43:46;18.77;;;15.40;;
30472;SDS011;17263;48.160;11.452;2023-03-01T03:46:12;19.47;;;16.20;;
30472;SDS011;17263;48.160;11.452;2023-03-01T03:48:39;19.30;;;15.57;;
30472;SDS011;17263;48.160;11.452;2023-03-01T03:51:09;17.03;;;15.17;;
30472;SDS011;17263;48.160;11.452;2023-03-01T03:53:40;20.80;;;15.07;;
30472;SDS011;17263;48.160;11.452;2023-03-01T03:56:07;21.77;;;16.43;;
30472;SDS011;17263;48.160;11.452;2023-03-01T03:58:33;19.07;;;15.97;;
30472;SDS011;17263;48.160;11.452;2023-03-01T04:00:59;20.63;;;16.27;;
30472;SDS011;17263;48.160;11.452;2023-03-01T04:03:29;20.87;;;16.73;;
30472;SDS011;17263;48.160;11.452;2023-03-01T04:05:57;19.67;;;15.87;;
30472;SDS011;17263;48.160;11.452;2023-03-01T04:08:24;23.93;;;17.27;;
30472;SDS011;17263;48.160;11.452;2023-03-01T04:10:51;20.80;;;16.63;;
30472;SDS011;17263;48.160;11.452;2023-03-01T04:13:21;24.37;;;16.73;;
30472;SDS011;17263;48.160;11.452;2023-03-01T04:15:53;23.10;;;16.90;;
30472;SDS011;17263;48.160;11.452;2023-03-01T04:18:21;21.53;;;16.53;;
30472;SDS011;17263;48.160;11.452;2023-03-01T04:20:49;24.83;;;18.57;;
30472;SDS011;17263;48.160;11.452;2023-03-01T04:23:18;19.40;;;15.90;;
30472;SDS011;17263;48.160;11.452;2023-03-01T04:25:49;20.00;;;17.30;;
30472;SDS011;17263;48.160;11.452;2023-03-01T04:30:53;21.90;;;16.03;;
30472;SDS011;17263;48.160;11.452;2023-03-01T04:33:22;20.37;;;15.90;;
30472;SDS011;17263;48.160;11.452;2023-03-01T04:35:48;20.00;;;16.43;;
30472;SDS011;17263;48.160;11.452;2023-03-01T04:38:15;22.20;;;16.47;;
30472;SDS011;17263;48.160;11.452;2023-03-01T04:40:45;25.77;;;16.77;;
30472;SDS011;17263;48.160;11.452;2023-03-01T04:43:11;20.37;;;16.23;;
30472;SDS011;17263;48.160;11.452;2023-03-01T04:45:41;23.73;;;16.77;;
30472;SDS011;17263;48.160;11.452;2023-03-01T04:48:07;21.07;;;16.97;;
30472;SDS011;17263;48.160;11.452;2023-03-01T04:50:33;21.93;;;16.87;;
30472;SDS011;17263;48.160;11.452;2023-03-01T04:53:00;20.90;;;16.07;;
30472;SDS011;17263;48.160;11.452;2023-03-01T04:55:26;23.53;;;16.90;;
30472;SDS011;17263;48.160;11.452;2023-03-01T04:57:54;22.40;;;16.33;;
30472;SDS011;17263;48.160;11.452;2023-03-01T05:00:21;20.43;;;16.70;;
30472;SDS011;17263;48.160;11.452;2023-03-01T05:02:51;21.90;;;16.77;;
30472;SDS011;17263;48.160;11.452;2023-03-01T05:05:23;19.10;;;16.13;;
30472;SDS011;17263;48.160;11.452;2023-03-01T05:08:09;23.13;;;16.80;;
30472;SDS011;17263;48.160;11.452;2023-03-01T05:10:46;22.13;;;16.67;;
30472;SDS011;17263;48.160;11.452;2023-03-01T05:13:16;22.13;;;17.03;;
30472;SDS011;17263;48.160;11.452;2023-03-01T05:15:47;20.33;;;16.07;;
30472;SDS011;17263;48.160;11.452;2023-03-01T05:18:20;22.03;;;16.83;;
30472;SDS011;17263;48.160;11.452;2023-03-01T05:21:04;24.53;;;17.63;;
30472;SDS011;17263;48.160;11.452;2023-03-01T05:23:38;20.77;;;17.40;;
30472;SDS011;17263;48.160;11.452;2023-03-01T05:26:05;24.37;;;16.57;;
30472;SDS011;17263;48.160;11.452;2023-03-01T05:28:32;24.47;;;16.87;;
30472;SDS011;17263;48.160;11.452;2023-03-01T05:30:58;24.50;;;17.60;;
30472;SDS011;17263;48.160;11.452;2023-03-01T05:33:24;19.80;;;16.50;;
30472;SDS011;17263;48.160;11.452;2023-03-01T05:35:51;21.10;;;16.90;;
30472;SDS011;17263;48.160;11.452;2023-03-01T05:38:19;23.77;;;17.03;;
30472;SDS011;17263;48.160;11.452;2023-03-01T05:40:46;21.83;;;16.53;;
30472;SDS011;17263;48.160;11.452;2023-03-01T05:43:14;20.90;;;16.73;;
30472;SDS011;17263;48.160;11.452;2023-03-01T05:45:41;20.80;;;17.43;;
30472;SDS011;17263;48.160;11.452;2023-03-01T05:48:08;18.67;;;15.93;;
30472;SDS011;17263;48.160;11.452;2023-03-01T05:50:37;23.63;;;17.07;;
30472;SDS011;17263;48.160;11.452;2023-03-01T05:53:13;21.97;;;17.07;;
30472;SDS011;17263;48.160;11.452;2023-03-01T05:55:40;24.70;;;16.57;;
30472;SDS011;17263;48.160;11.452;2023-03-01T05:58:09;22.07;;;17.23;;
30472;SDS011;17263;48.160;11.452;2023-03-01T06:00:37;24.37;;;17.53;;
30472;SDS011;17263;48.160;11.452;2023-03-01T06:03:03;21.07;;;16.27;;
30472;SDS011;17263;48.160;11.452;2023-03-01T06:05:29;22.80;;;16.10;;
30472;SDS011;17263;48.160;11.452;2023-03-01T06:07:58;21.30;;;17.00;;
30472;SDS011;17263;48.160;11.452;2023-03-01T06:10:25;23.37;;;17.33;;
30472;SDS011;17263;48.160;11.452;2023-03-01T06:12:51;22.60;;;17.07;;
30472;SDS011;17263;48.160;11.452;2023-03-01T06:15:17;23.70;;;18.20;;
30472;SDS011;17263;48.160;11.452;2023-03-01T06:17:44;24.30;;;17.77;;
30472;SDS011;17263;48.160;11.452;2023-03-01T06:20:15;23.67;;;17.43;;
30472;SDS011;17263;48.160;11.452;2023-03-01T06:22:43;22.80;;;18.07;;
30472;SDS011;17263;48.160;11.452;2023-03-01T06:25:11;21.43;;;17.27;;
30472;SDS011;17263;48.160;11.452;2023-03-01T06:27:38;23.97;;;16.80;;
30472;SDS011;17263;48.160;11.452;2023-03-01T06:30:05;30.30;;;17.40;;
30472;SDS011;17263;48.160;11.452;2023-03-01T06:32:32;21.37;;;16.93;;
30472;SDS011;17263;48.160;11.452;2023-03-01T06:34:58;23.87;;;17.80;;
30472;SDS011;17263;48.160;11.452;2023-03-01T06:37:24;24.30;;;18.53;;
30472;SDS011;17263;48.160;11.452;2023-03-01T06:39:51;22.70;;;17.57;;
30472;SDS011;17263;48.160;11.452;2023-03-01T06:42:17;24.73;;;17.37;;
30472;SDS011;17263;48.160;11.452;2023-03-01T06:44:43;24.10;;;17.90;;
30472;SDS011;17263;48.160;11.452;2023-03-01T06:47:10;21.87;;;16.93;;
30472;SDS011;17263;48.160;11.452;2023-03-01T06:49:36;23.30;;;17.90;;
30472;SDS011;17263;48.160;11.452;2023-03-01T06:52:02;24.33;;;18.30;;
30472;SDS011;17263;48.160;11.452;2023-03-01T06:54:28;23.57;;;17.83;;
30472;SDS011;17263;48.160;11.452;2023-03-01T06:56:54;23.37;;;17.63;;
30472;SDS011;17263;48.160;11.452;2023-03-01T06:59:20;25.03;;;17.77;;
30472;SDS011;17263;48.160;11.452;2023-03-01T07:01:46;24.87;;;18.10;;
30472;SDS011;17263;48.160;11.452;2023-03-01T07:04:12;24.40;;;18.60;;
30472;SDS011;17263;48.160;11.452;2023-03-01T07:06:39;23.30;;;17.03;;
30472;SDS011;17263;48.160;11.452;2023-03-01T07:09:05;24.57;;;17.60;;
30472;SDS011;17263;48.160;11.452;2023-03-01T07:11:31;26.23;;;18.27;;
30472;SDS011;17263;48.160;11.452;2023-03-01T07:13:57;24.33;;;17.07;;
30472;SDS011;17263;48.160;11.452;2023-03-01T07:16:23;25.53;;;17.67;;
30472;SDS011;17263;48.160;11.452;2023-03-01T07:18:49;22.53;;;17.67;;
30472;SDS011;17263;48.160;11.452;2023-03-01T07:21:15;22.97;;;18.50;;
30472;SDS011;17263;48.160;11.452;2023-03-01T07:23:42;26.00;;;18.13;;
30472;SDS011;17263;48.160;11.452;2023-03-01T07:26:08;23.33;;;17.57;;
30472;SDS011;17263;48.160;11.452;2023-03-01T07:28:34;24.53;;;17.73;;
30472;SDS011;17263;48.160;11.452;2023-03-01T07:31:03;22.90;;;17.27;;
30472;SDS011;17263;48.160;11.452;2023-03-01T07:33:31;24.87;;;17.93;;
30472;SDS011;17263;48.160;11.452;2023-03-01T07:35:57;23.17;;;17.50;;
30472;SDS011;17263;48.160;11.452;2023-03-01T07:38:27;25.63;;;17.47;;
30472;SDS011;17263;48.160;11.452;2023-03-01T07:40:57;23.33;;;17.43;;
30472;SDS011;17263;48.160;11.452;2023-03-01T07:43:24;24.77;;;17.50;;
30472;SDS011;17263;48.160;11.452;2023-03-01T07:45:50;25.30;;;17.57;;
30472;SDS011;17263;48.160;11.452;2023-03-01T07:48:17;23.07;;;17.77;;
30472;SDS011;17263;48.160;11.452;2023-03-01T07:50:43;24.97;;;17.43;;
30472;SDS011;17263;48.160;11.452;2023-03-01T07:53:09;23.47;;;17.43;;
30472;SDS011;17263;48.160;11.452;2023-03-01T07:55:36;27.47;;;18.70;;
30472;SDS011;17263;48.160;11.452;2023-03-01T07:58:03;21.53;;;17.73;;
30472;SDS011;17263;48.160;11.452;2023-03-01T08:00:29;23.57;;;17.73;;
30472;SDS011;17263;48.160;11.452;2023-03-01T08:02:58;27.20;;;18.57;;
30472;SDS011;17263;48.160;11.452;2023-03-01T08:05:25;25.53;;;17.07;;
30472;SDS011;17263;48.160;11.452;2023-03-01T08:07:51;22.47;;;18.20;;
30472;SDS011;17263;48.160;11.452;2023-03-01T08:10:17;26.03;;;18.13;;
30472;SDS011;17263;48.160;11.452;2023-03-01T08:12:44;30.77;;;18.70;;
30472;SDS011;17263;48.160;11.452;2023-03-01T08:15:11;26.53;;;18.37;;
30472;SDS011;17263;48.160;11.452;2023-03-01T08:17:38;24.80;;;18.53;;
30472;SDS011;17263;48.160;11.452;2023-03-01T08:20:04;26.77;;;19.90;;
30472;SDS011;17263;48.160;11.452;2023-03-01T08:22:32;24.13;;;18.43;;
30472;SDS011;17263;48.160;11.452;2023-03-01T08:24:58;20.73;;;17.20;;
30472;SDS011;17263;48.160;11.452;2023-03-01T08:27:24;22.33;;;17.63;;
30472;SDS011;17263;48.160;11.452;2023-03-01T08:29:50;22.67;;;17.60;;
30472;SDS011;17263;48.160;11.452;2023-03-01T08:32:16;24.43;;;17.73;;
30472;SDS011;17263;48.160;11.452;2023-03-01T08:34:42;22.03;;;17.43;;
30472;SDS011;17263;48.160;11.452;2023-03-01T08:37:12;22.33;;;17.10;;
30472;SDS011;17263;48.160;11.452;2023-03-01T08:39:38;26.27;;;18.80;;
30472;SDS011;17263;48.160;11.452;2023-03-01T08:42:04;24.30;;;17.77;;
30472;SDS011;17263;48.160;11.452;2023-03-01T08:44:30;23.53;;;18.17;;
30472;SDS011;17263;48.160;11.452;2023-03-01T08:46:56;23.90;;;18.33;;
30472;SDS011;17263;48.160;11.452;2023-03-01T08:49:23;22.03;;;17.87;;
30472;SDS011;17263;48.160;11.452;2023-03-01T08:51:49;26.53;;;17.37;;
30472;SDS011;17263;48.160;11.452;2023-03-01T08:54:16;26.33;;;17.93;;
30472;SDS011;17263;48.160;11.452;2023-03-01T08:56:44;22.20;;;17.47;;
30472;SDS011;17263;48.160;11.452;2023-03-01T08:59:11;26.50;;;18.23;;
30472;SDS011;17263;48.160;11.452;2023-03-01T09:01:38;24.60;;;17.67;;
30472;SDS011;17263;48.160;11.452;2023-03-01T09:04:05;24.03;;;16.97;;
30472;SDS011;17263;48.160;11.452;2023-03-01T09:06:32;27.43;;;18.37;;
30472;SDS011;17263;48.160;11.452;2023-03-01T09:08:59;23.10;;;17.40;;
30472;SDS011;17263;48.160;11.452;2023-03-01T09:11:26;25.70;;;17.80;;
30472;SDS011;17263;48.160;11.452;2023-03-01T09:13:53;23.47;;;17.83;;
30472;SDS011;17263;48.160;11.452;2023-03-01T09:16:21;24.97;;;17.63;;
30472;SDS011;17263;48.160;11.452;2023-03-01T09:18:54;22.33;;;17.53;;
30472;SDS011;17263;48.160;11.452;2023-03-01T09:21:21;22.53;;;17.87;;
30472;SDS011;17263;48.160;11.452;2023-03-01T09:23:48;23.43;;;17.40;;
30472;SDS011;17263;48.160;11.452;2023-03-01T09:26:16;25.30;;;17.60;;
30472;SDS011;17263;48.160;11.452;2023-03-01T09:28:45;23.53;;;17.30;;
30472;SDS011;17263;48.160;11.452;2023-03-01T09:31:12;23.20;;;18.10;;
30472;SDS011;17263;48.160;11.452;2023-03-01T09:33:40;24.37;;;19.10;;
30472;SDS011;17263;48.160;11.452;2023-03-01T09:36:09;20.70;;;16.83;;
30472;SDS011;17263;48.160;11.452;2023-03-01T09:38:41;26.57;;;18.93;;
30472;SDS011;17263;48.160;11.452;2023-03-01T09:41:11;26.87;;;18.93;;
30472;SDS011;17263;48.160;11.452;2023-03-01T09:43:51;25.23;;;18.10;;
30472;SDS011;17263;48.160;11.452;2023-03-01T09:46:23;23.57;;;18.37;;
30472;SDS011;17263;48.160;11.452;2023-03-01T09:51:27;26.13;;;17.70;;
30472;SDS011;17263;48.160;11.452;2023-03-01T09:54:01;25.70;;;18.90;;
30472;SDS011;17263;48.160;11.452;2023-03-01T09:56:37;24.07;;;17.80;;
30472;SDS011;17263;48.160;11.452;2023-03-01T10:02:21;25.53;;;18.10;;
30472;SDS011;17263;48.160;11.452;2023-03-01T10:04:56;24.57;;;18.10;;
30472;SDS011;17263;48.160;11.452;2023-03-01T10:07:32;23.93;;;17.77;;
30472;SDS011;17263;48.160;11.452;2023-03-01T10:10:10;26.37;;;18.23;;
30472;SDS011;17263;48.160;11.452;2023-03-01T10:12:49;23.43;;;18.20;;
30472;SDS011;17263;48.160;11.452;2023-03-01T10:15:22;23.33;;;17.93;;
30472;SDS011;17263;48.160;11.452;2023-03-01T10:17:58;24.17;;;17.57;;
30472;SDS011;17263;48.160;11.452;2023-03-01T10:20:36;25.17;;;17.67;;
30472;SDS011;17263;48.160;11.452;2023-03-01T10:23:27;21.67;;;17.27;;
30472;SDS011;17263;48.160;11.452;2023-03-01T10:31:27;24.77;;;18.30;;
30472;SDS011;17263;48.160;11.452;2023-03-01T10:34:27;23.60;;;17.67;;
30472;SDS011;17263;48.160;11.452;2023-03-01T10:37:01;22.30;;;18.03;;
30472;SDS011;17263;48.160;11.452;2023-03-01T10:39:35;23.33;;;17.67;;
30472;SDS011;17263;48.160;11.452;2023-03-01T10:42:02;23.03;;;18.93;;
30472;SDS011;17263;48.160;11.452;2023-03-01T10:44:38;22.70;;;18.23;;
30472;SDS011;17263;48.160;11.452;2023-03-01T10:47:14;25.27;;;18.83;;
30472;SDS011;17263;48.160;11.452;2023-03-01T10:49:49;23.67;;;18.53;;
30472;SDS011;17263;48.160;11.452;2023-03-01T10:52:22;26.30;;;17.70;;
30472;SDS011;17263;48.160;11.452;2023-03-01T10:54:55;24.23;;;18.97;;
30472;SDS011;17263;48.160;11.452;2023-03-01T11:00:01;24.83;;;19.70;;
30472;SDS011;17263;48.160;11.452;2023-03-01T11:02:48;24.00;;;19.23;;
30472;SDS011;17263;48.160;11.452;2023-03-01T11:05:24;24.47;;;19.80;;
30472;SDS011;17263;48.160;11.452;2023-03-01T11:07:55;25.37;;;19.37;;
30472;SDS011;17263;48.160;11.452;2023-03-01T11:10:29;23.13;;;18.07;;
30472;SDS011;17263;48.160;11.452;2023-03-01T11:13:16;25.17;;;18.93;;
30472;SDS011;17263;48.160;11.452;2023-03-01T11:15:58;28.27;;;21.07;;
30472;SDS011;17263;48.160;11.452;2023-03-01T11:18:26;24.33;;;18.53;;
30472;SDS011;17263;48.160;11.452;2023-03-01T11:20:54;24.13;;;18.57;;
30472;SDS011;17263;48.160;11.452;2023-03-01T11:23:21;24.23;;;19.63;;
30472;SDS011;17263;48.160;11.452;2023-03-01T11:25:55;26.53;;;19.83;;
30472;SDS011;17263;48.160;11.452;2023-03-01T11:28:24;25.03;;;19.37;;
30472;SDS011;17263;48.160;11.452;2023-03-01T11:30:53;25.60;;;19.50;;
30472;SDS011;17263;48.160;11.452;2023-03-01T11:36:16;26.00;;;20.07;;
30472;SDS011;17263;48.160;11.452;2023-03-01T11:38:52;24.43;;;18.07;;
30472;SDS011;17263;48.160;11.452;2023-03-01T11:41:21;24.47;;;20.53;;
30472;SDS011;17263;48.160;11.452;2023-03-01T11:43:52;28.23;;;20.40;;
30472;SDS011;17263;48.160;11.452;2023-03-01T11:52:00;28.70;;;21.20;;
30472;SDS011;17263;48.160;11.452;2023-03-01T11:54:44;25.30;;;20.00;;
30472;SDS011;17263;48.160;11.452;2023-03-01T11:58:00;22.83;;;18.53;;
30472;SDS011;17263;48.160;11.452;2023-03-01T12:06:14;22.93;;;19.07;;
30472;SDS011;17263;48.160;11.452;2023-03-01T12:14:22;23.30;;;19.00;;
30472;SDS011;17263;48.160;11.452;2023-03-01T12:17:25;25.07;;;18.97;;
30472;SDS011;17263;48.160;11.452;2023-03-01T12:20:26;23.60;;;18.87;;
30472;SDS011;17263;48.160;11.452;2023-03-01T12:23:16;25.97;;;19.70;;
30472;SDS011;17263;48.160;11.452;2023-03-01T12:33:55;26.77;;;20.23;;
30472;SDS011;17263;48.160;11.452;2023-03-01T12:36:29;24.93;;;19.73;;
30472;SDS011;17263;48.160;11.452;2023-03-01T12:42:18;25.63;;;20.17;;
30472;SDS011;17263;48.160;11.452;2023-03-01T12:44:59;25.77;;;20.13;;
30472;SDS011;17263;48.160;11.452;2023-03-01T12:47:53;27.03;;;20.30;;
30472;SDS011;17263;48.160;11.452;2023-03-01T12:50:23;26.17;;;20.37;;
30472;SDS011;17263;48.160;11.452;2023-03-01T12:52:56;23.23;;;19.80;;
30472;SDS011;17263;48.160;11.452;2023-03-01T12:55:28;25.57;;;19.77;;
30472;SDS011;17263;48.160;11.452;2023-03-01T12:57:59;23.47;;;19.63;;
30472;SDS011;17263;48.160;11.452;2023-03-01T13:00:32;23.30;;;19.27;;
30472;SDS011;17263;48.160;11.452;2023-03-01T13:05:39;25.43;;;20.23;;
30472;SDS011;17263;48.160;11.452;2023-03-01T13:11:17;24.13;;;19.60;;
30472;SDS011;17263;48.160;11.452;2023-03-01T13:13:45;25.27;;;19.93;;
30472;SDS011;17263;48.160;11.452;2023-03-01T13:16:56;24.57;;;19.37;;
30472;SDS011;17263;48.160;11.452;2023-03-01T13:19:11;27.73;;;21.23;;
30472;SDS011;17263;48.160;11.452;2023-03-01T13:21:41;22.57;;;19.60;;
30472;SDS011;17263;48.160;11.452;2023-03-01T13:29:58;23.93;;;19.40;;
30472;SDS011;17263;48.160;11.452;2023-03-01T13:35:40;24.40;;;19.37;;
30472;SDS011;17263;48.160;11.452;2023-03-01T13:37:52;23.80;;;19.67;;
30472;SDS011;17263;48.160;11.452;2023-03-01T13:40:57;23.13;;;19.27;;
30472;SDS011;17263;48.160;11.452;2023-03-01T13:43:28;26.07;;;19.57;;
30472;SDS011;17263;48.160;11.452;2023-03-01T13:46:17;23.60;;;18.87;;
30472;SDS011;17263;48.160;11.452;2023-03-01T13:48:47;24.00;;;19.23;;
30472;SDS011;17263;48.160;11.452;2023-03-01T13:51:20;29.70;;;21.47;;
30472;SDS011;17263;48.160;11.452;2023-03-01T13:53:56;25.03;;;19.50;;
30472;SDS011;17263;48.160;11.452;2023-03-01T13:56:24;23.60;;;19.23;;
30472;SDS011;17263;48.160;11.452;2023-03-01T13:58:54;24.80;;;19.43;;
30472;SDS011;17263;48.160;11.452;2023-03-01T14:01:29;22.57;;;19.47;;
30472;SDS011;17263;48.160;11.452;2023-03-01T14:03:59;23.43;;;19.90;;
30472;SDS011;17263;48.160;11.452;2023-03-01T14:06:30;23.87;;;20.33;;
30472;SDS011;17263;48.160;11.452;2023-03-01T14:09:05;24.40;;;20.17;;
30472;SDS011;17263;48.160;11.452;2023-03-01T14:18:23;26.27;;;19.90;;
30472;SDS011;17263;48.160;11.452;2023-03-01T14:20:21;24.73;;;19.30;;
30472;SDS011;17263;48.160;11.452;2023-03-01T14:22:56;23.23;;;19.37;;
30472;SDS011;17263;48.160;11.452;2023-03-01T14:25:25;27.27;;;19.70;;
30472;SDS011;17263;48.160;11.452;2023-03-01T14:28:04;24.13;;;19.53;;
30472;SDS011;17263;48.160;11.452;2023-03-01T14:30:43;24.20;;;19.00;;
30472;SDS011;17263;48.160;11.452;2023-03-01T14:33:19;23.10;;;18.10;;
30472;SDS011;17263;48.160;11.452;2023-03-01T14:36:12;21.60;;;18.27;;
30472;SDS011;17263;48.160;11.452;2023-03-01T14:38:39;24.50;;;18.87;;
30472;SDS011;17263;48.160;11.452;2023-03-01T14:43:57;21.47;;;18.20;;
30472;SDS011;17263;48.160;11.452;2023-03-01T14:46:28;23.80;;;17.53;;
30472;SDS011;17263;48.160;11.452;2023-03-01T14:49:04;23.83;;;17.97;;
30472;SDS011;17263;48.160;11.452;2023-03-01T14:56:50;22.70;;;17.33;;
30472;SDS011;17263;48.160;11.452;2023-03-01T14:59:19;22.33;;;18.00;;
30472;SDS011;17263;48.160;11.452;2023-03-01T15:01:49;21.67;;;17.33;;
30472;SDS011;17263;48.160;11.452;2023-03-01T15:04:18;21.07;;;17.97;;
30472;SDS011;17263;48.160;11.452;2023-03-01T15:06:47;20.23;;;16.67;;
30472;SDS011;17263;48.160;11.452;2023-03-01T15:09:16;25.70;;;18.40;;
30472;SDS011;17263;48.160;11.452;2023-03-01T15:11:43;22.80;;;16.90;;
30472;SDS011;17263;48.160;11.452;2023-03-01T15:14:26;21.20;;;17.17;;
30472;SDS011;17263;48.160;11.452;2023-03-01T15:20:04;22.10;;;16.87;;
30472;SDS011;17263;48.160;11.452;2023-03-01T15:22:45;20.63;;;16.40;;
30472;SDS011;17263;48.160;11.452;2023-03-01T15:25:17;23.43;;;16.03;;
30472;SDS011;17263;48.160;11.452;2023-03-01T15:27:45;20.47;;;15.73;;
30472;SDS011;17263;48.160;11.452;2023-03-01T15:30:13;21.20;;;16.50;;
30472;SDS011;17263;48.160;11.452;2023-03-01T15:32:48;23.07;;;16.43;;
30472;SDS011;17263;48.160;11.452;2023-03-01T15:35:46;21.03;;;16.47;;
30472;SDS011;17263;48.160;11.452;2023-03-01T15:43:51;17.57;;;15.67;;
30472;SDS011;17263;48.160;11.452;2023-03-01T15:49:02;19.97;;;14.83;;
30472;SDS011;17263;48.160;11.452;2023-03-01T15:51:31;19.83;;;15.90;;
30472;SDS011;17263;48.160;11.452;2023-03-01T15:54:01;25.53;;;15.80;;
30472;SDS011;17263;48.160;11.452;2023-03-01T15:56:30;22.27;;;15.63;;
30472;SDS011;17263;48.160;11.452;2023-03-01T15:59:00;21.17;;;16.23;;
30472;SDS011;17263;48.160;11.452;2023-03-01T16:01:27;19.47;;;16.07;;
30472;SDS011;17263;48.160;11.452;2023-03-01T16:03:54;19.30;;;15.80;;
30472;SDS011;17263;48.160;11.452;2023-03-01T16:06:20;17.57;;;14.87;;
30472;SDS011;17263;48.160;11.452;2023-03-01T16:08:46;21.00;;;15.63;;